Time;durP1;ratioP1;P1;durP2;ratioP2;P2;SDS_P1;SDS_P2;PMS_P1;PMS_P2;Temp;Humidity;BMP_temperature;BMP_pressure;BME280_temperature;BME280_humidity;BME280_pressure;Samples;Min_cycle;Max_cycle;Signal;HPM_P1;HPM_P2
2022/06/08 00:02:04;;;;;;;25.50;10.65;;;11.90;99.90;;;;;;5097437;28;20051;-72
2022/06/08 00:04:30;;;;;;;21.83;10.82;;;11.90;99.90;;;;;;5096291;28;20054;-74
2022/06/08 00:06:56;;;;;;;24.27;10.90;;;11.90;99.90;;;;;;5094781;28;20501;-72
2022/06/08 00:09:21;;;;;;;27.25;11.65;;;11.90;99.90;;;;;;5092813;28;20055;-73
2022/06/08 00:11:47;;;;;;;24.08;11.70;;;11.90;99.90;;;;;;5076875;28;20440;-73
2022/06/08 00:14:14;;;;;;;25.75;11.85;;;11.90;99.90;;;;;;5094483;28;20048;-73
2022/06/08 00:16:40;;;;;;;;;;;11.90;99.90;;;;;;5094227;28;20040;-73
2022/06/08 00:19:06;;;;;;;26.23;11.67;;;12.00;99.90;;;;;;5094126;28;19920;-74
2022/06/08 00:21:32;;;;;;;22.10;11.00;;;12.00;99.90;;;;;;5092714;28;20052;-73
2022/06/08 00:23:58;;;;;;;25.13;11.07;;;12.00;99.90;;;;;;5093393;28;20448;-73
2022/06/08 00:26:27;;;;;;;28.52;11.25;;;12.10;99.90;;;;;;5075625;28;20127;-73
2022/06/08 00:28:53;;;;;;;24.10;11.23;;;12.10;99.90;;;;;;5093164;28;20429;-73
2022/06/08 00:31:20;;;;;;;26.45;11.85;;;12.10;99.90;;;;;;5075826;28;20044;-74
2022/06/08 00:33:46;;;;;;;26.05;11.45;;;12.10;99.90;;;;;;5093374;28;20051;-73
2022/06/08 00:36:12;;;;;;;24.90;12.15;;;12.20;99.90;;;;;;5091700;28;20127;-73
2022/06/08 00:38:37;;;;;;;30.58;12.30;;;12.20;99.90;;;;;;5109357;28;20123;-72
2022/06/08 00:41:22;;;;;;;25.08;12.60;;;12.20;99.90;;;;;;5092172;28;20044;-73
2022/06/08 00:43:47;;;;;;;26.92;11.68;;;12.20;99.90;;;;;;5091954;28;20544;-73
2022/06/08 00:46:13;;;;;;;25.42;12.23;;;12.20;99.90;;;;;;5108299;28;20086;-74
2022/06/08 00:48:47;;;;;;;25.23;12.35;;;12.30;99.90;;;;;;5092085;28;20108;-73
2022/06/08 00:51:13;;;;;;;24.95;11.98;;;12.30;99.90;;;;;;5092055;28;20040;-73
2022/06/08 00:53:53;;;;;;;24.05;11.85;;;12.40;99.90;;;;;;5093470;28;20253;-73
2022/06/08 00:56:24;;;;;;;25.63;11.93;;;12.40;99.90;;;;;;5092783;28;20484;-72
2022/06/08 00:58:50;;;;;;;23.45;11.73;;;12.40;99.90;;;;;;5093427;28;20051;-74
2022/06/08 01:01:15;;;;;;;26.63;12.00;;;12.30;99.90;;;;;;5091777;28;20377;-74
2022/06/08 01:03:41;;;;;;;27.50;12.05;;;12.30;99.90;;;;;;5092737;28;20051;-74
2022/06/08 01:06:24;;;;;;;23.75;11.50;;;12.30;99.90;;;;;;5109534;28;20364;-73
2022/06/08 01:08:54;;;;;;;23.33;11.23;;;12.40;99.90;;;;;;5091857;28;20568;-74
2022/06/08 01:11:36;;;;;;;23.15;12.05;;;12.40;99.90;;;;;;5092727;28;20048;-72
2022/06/08 01:14:06;;;;;;;24.73;11.85;;;12.30;99.90;;;;;;5093257;28;20048;-73
2022/06/08 01:16:32;;;;;;;27.17;13.10;;;12.30;99.90;;;;;;5093428;28;20047;-73
2022/06/08 01:19:01;;;;;;;24.98;12.45;;;12.40;99.90;;;;;;5093143;28;20043;-73
2022/06/08 01:21:27;;;;;;;26.88;12.05;;;12.40;99.90;;;;;;5091629;28;20055;-74
2022/06/08 01:24:03;;;;;;;27.55;12.75;;;12.40;99.90;;;;;;5090898;28;20056;-75
2022/06/08 01:26:43;;;;;;;25.88;12.43;;;12.40;99.90;;;;;;5092747;28;20052;-73
2022/06/08 01:29:35;;;;;;;24.35;13.15;;;12.50;99.90;;;;;;5092743;28;20058;-73
2022/06/08 01:32:09;;;;;;;25.67;12.60;;;12.50;99.90;;;;;;5090517;28;20048;-73
2022/06/08 01:34:42;;;;;;;25.10;12.52;;;12.50;99.90;;;;;;5092862;28;20047;-74
2022/06/08 01:37:44;;;;;;;26.50;13.15;;;12.50;99.90;;;;;;5092457;28;20044;-74
2022/06/08 01:40:30;;;;;;;22.83;11.85;;;12.50;99.90;;;;;;5092364;28;20152;-74
2022/06/08 01:42:59;;;;;;;;;;;12.60;99.90;;;;;;5092762;28;20040;-74
2022/06/08 01:45:48;;;;;;;25.35;11.82;;;12.50;99.90;;;;;;5092304;28;19919;-74
2022/06/08 01:48:41;;;;;;;25.45;12.20;;;12.50;99.90;;;;;;5092633;28;20048;-73
2022/06/08 01:51:20;;;;;;;26.63;12.93;;;12.60;99.90;;;;;;5092265;28;20048;-74
2022/06/08 01:54:04;;;;;;;29.70;12.38;;;12.60;99.90;;;;;;5092771;28;20161;-74
2022/06/08 01:56:47;;;;;;;26.33;12.55;;;12.60;99.90;;;;;;5091137;28;20044;-73
2022/06/08 01:59:27;;;;;;;27.08;12.40;;;12.60;99.90;;;;;;5094747;28;20087;-74
2022/06/08 02:02:02;;;;;;;25.38;11.73;;;12.60;99.90;;;;;;5096265;28;20102;-75
2022/06/08 02:04:36;;;;;;;25.13;11.75;;;12.70;99.90;;;;;;5096166;28;20069;-75
2022/06/08 02:07:10;;;;;;;24.25;12.65;;;12.70;99.90;;;;;;5096911;28;20351;-75
2022/06/08 02:10:08;;;;;;;27.17;13.02;;;12.70;99.90;;;;;;5096491;28;20060;-75
2022/06/08 02:12:38;;;;;;;25.27;12.20;;;12.70;99.90;;;;;;5091861;28;20050;-75
2022/06/08 02:15:12;;;;;;;23.95;12.35;;;12.70;99.90;;;;;;5096422;28;20087;-73
2022/06/08 02:17:50;;;;;;;30.38;12.35;;;12.70;99.90;;;;;;5096146;28;20101;-73
2022/06/08 02:20:30;;;;;;;26.92;12.32;;;12.60;99.90;;;;;;5094884;28;20153;-73
2022/06/08 02:23:02;;;;;;;25.05;13.25;;;12.70;99.90;;;;;;5095116;28;20479;-74
2022/06/08 02:25:36;;;;;;;27.02;11.85;;;12.70;99.90;;;;;;5094865;28;20056;-73
2022/06/08 02:28:18;;;;;;;25.90;11.88;;;12.80;99.90;;;;;;5096374;28;20097;-73
2022/06/08 02:30:54;;;;;;;31.58;13.50;;;12.80;99.90;;;;;;5095212;28;20056;-73
2022/06/08 02:36:18;;;;;;;26.20;13.77;;;12.70;99.90;;;;;;5095033;28;20138;-74
2022/06/08 02:38:51;;;;;;;25.98;13.75;;;12.70;99.90;;;;;;5094718;28;20082;-73
2022/06/08 02:41:20;;;;;;;28.63;13.35;;;12.80;99.90;;;;;;5094583;28;20135;-73
2022/06/08 02:43:51;;;;;;;27.52;13.20;;;12.80;99.90;;;;;;5095222;28;20093;-74
2022/06/08 02:46:22;;;;;;;29.13;12.52;;;12.80;99.90;;;;;;5095268;28;20126;-74
2022/06/08 02:48:47;;;;;;;24.65;13.40;;;12.80;99.90;;;;;;5095502;28;20048;-74
2022/06/08 02:51:14;;;;;;;28.35;13.93;;;12.70;99.90;;;;;;5077406;28;20535;-74
2022/06/08 02:53:52;;;;;;;29.60;13.90;;;12.70;99.90;;;;;;5077294;28;20187;-74
2022/06/08 02:56:51;;;;;;;28.33;13.45;;;12.70;99.90;;;;;;5094878;28;20107;-74
2022/06/08 02:59:35;;;;;;;31.50;14.30;;;12.70;99.90;;;;;;5085400;28;20067;-73
2022/06/08 03:02:40;;;;;;;27.83;13.88;;;12.80;99.90;;;;;;5097007;28;20048;-74
2022/06/08 03:05:17;;;;;;;28.00;13.63;;;12.70;99.90;;;;;;5064355;28;20060;-73
2022/06/08 03:07:53;;;;;;;23.52;12.75;;;12.70;99.90;;;;;;5095670;28;20044;-73
2022/06/08 03:10:20;;;;;;;28.75;14.05;;;12.70;99.90;;;;;;5095332;28;20359;-73
2022/06/08 03:12:51;;;;;;;28.65;14.38;;;12.70;99.90;;;;;;5079107;28;20048;-74
2022/06/08 03:15:22;;;;;;;26.40;13.70;;;12.70;99.90;;;;;;5093821;28;20063;-73
2022/06/08 03:17:50;;;;;;;28.88;14.30;;;12.70;99.90;;;;;;5095289;28;20040;-75
2022/06/08 03:20:17;;;;;;;29.02;14.52;;;12.80;99.90;;;;;;5093438;28;20048;-75
2022/06/08 03:22:43;;;;;;;27.08;14.10;;;12.80;99.90;;;;;;5076155;28;20051;-74
2022/06/08 03:25:10;;;;;;;28.75;14.07;;;12.80;99.90;;;;;;5094166;28;20048;-75
2022/06/08 03:27:37;;;;;;;29.65;13.60;;;12.80;99.90;;;;;;5093498;28;20388;-75
2022/06/08 03:30:05;;;;;;;33.53;15.07;;;12.80;99.90;;;;;;5092984;28;20047;-74
2022/06/08 03:32:31;;;;;;;33.95;14.30;;;12.80;99.90;;;;;;5110005;28;20471;-74
2022/06/08 03:34:57;;;;;;;32.00;13.82;;;12.90;99.90;;;;;;5094247;28;20127;-73
2022/06/08 03:37:23;;;;;;;27.98;14.15;;;12.90;99.90;;;;;;5092919;28;20092;-74
2022/06/08 03:39:49;;;;;;;35.65;14.48;;;12.90;99.90;;;;;;5094185;28;20181;-74
2022/06/08 03:42:15;;;;;;;28.20;13.95;;;13.00;99.90;;;;;;5075989;28;20510;-74
2022/06/08 03:44:41;;;;;;;30.33;14.52;;;13.00;99.90;;;;;;5094417;28;20043;-74
2022/06/08 03:47:15;;;;;;;32.72;14.77;;;13.00;99.90;;;;;;5092516;28;20044;-74
2022/06/08 03:49:41;;;;;;;36.03;14.98;;;13.10;99.90;;;;;;5092717;28;20486;-74
2022/06/08 03:52:13;;;;;;;34.40;14.38;;;13.10;99.90;;;;;;5094023;28;20043;-74
2022/06/08 03:54:43;;;;;;;32.65;14.43;;;13.10;99.90;;;;;;5094160;28;20355;-74
2022/06/08 03:57:11;;;;;;;29.30;13.82;;;13.10;99.90;;;;;;5094294;28;20392;-75
2022/06/08 03:59:42;;;;;;;30.67;15.30;;;13.20;99.90;;;;;;5093713;28;20048;-74
2022/06/08 04:02:11;;;;;;;30.35;15.50;;;13.20;99.90;;;;;;5093662;28;20050;-74
2022/06/08 04:04:38;;;;;;;31.33;14.73;;;13.20;99.90;;;;;;5093345;28;20514;-74
2022/06/08 04:07:04;;;;;;;34.33;16.20;;;13.30;99.90;;;;;;5076107;28;20052;-73
2022/06/08 04:09:29;;;;;;;37.20;15.15;;;13.30;99.90;;;;;;5092642;28;20075;-72
2022/06/08 04:11:55;;;;;;;39.67;15.93;;;13.40;99.90;;;;;;5092201;28;20131;-72
2022/06/08 04:14:21;;;;;;;35.70;16.05;;;13.40;99.90;;;;;;5093375;28;20494;-73
2022/06/08 04:16:47;;;;;;;33.30;15.75;;;13.40;99.90;;;;;;5093314;28;20100;-72
2022/06/08 04:19:14;;;;;;;30.58;15.70;;;13.40;99.90;;;;;;5092212;28;20088;-72
2022/06/08 04:21:41;;;;;;;32.45;16.20;;;13.50;99.90;;;;;;5074574;28;20054;-73
2022/06/08 04:24:10;;;;;;;36.50;16.65;;;13.50;99.90;;;;;;5092179;28;20056;-72
2022/06/08 04:26:36;;;;;;;37.72;17.20;;;13.50;99.90;;;;;;5093447;28;20054;-73
2022/06/08 04:29:02;;;;;;;38.90;16.73;;;13.50;99.90;;;;;;5075193;28;20080;-73
2022/06/08 04:31:32;;;;;;;35.00;17.48;;;13.60;99.90;;;;;;5076131;28;20059;-74
2022/06/08 04:33:59;;;;;;;37.33;17.02;;;13.60;99.90;;;;;;5091913;28;20040;-73
2022/06/08 04:36:24;;;;;;;34.10;16.73;;;13.70;99.90;;;;;;5091878;28;20396;-72
2022/06/08 04:38:56;;;;;;;34.90;16.42;;;13.70;99.90;;;;;;5093425;28;20384;-73
2022/06/08 04:41:22;;;;;;;36.42;17.65;;;13.80;99.90;;;;;;5093652;28;20487;-73
2022/06/08 04:43:48;;;;;;;35.40;17.52;;;13.90;99.90;;;;;;5092871;28;20051;-72
2022/06/08 04:46:16;;;;;;;32.03;16.98;;;13.90;99.90;;;;;;5108730;28;20388;-72
2022/06/08 04:48:43;;;;;;;36.65;17.42;;;14.00;99.90;;;;;;5091973;28;20074;-72
2022/06/08 04:51:10;;;;;;;33.35;17.25;;;14.10;99.90;;;;;;5075137;28;20043;-73
2022/06/08 04:53:38;;;;;;;34.63;16.75;;;14.10;99.90;;;;;;5092052;28;20040;-74
2022/06/08 04:56:04;;;;;;;37.58;17.35;;;14.20;99.90;;;;;;5092824;28;20109;-74
2022/06/08 04:58:30;;;;;;;40.13;17.98;;;14.30;99.90;;;;;;5092436;28;20479;-73
2022/06/08 05:00:56;;;;;;;36.17;18.63;;;14.30;99.90;;;;;;5075055;28;20127;-72
2022/06/08 05:03:22;;;;;;;34.63;18.00;;;14.40;99.90;;;;;;5091586;28;20048;-72
2022/06/08 05:05:48;;;;;;;33.85;17.67;;;14.50;99.90;;;;;;5092032;28;20476;-72
2022/06/08 05:08:17;;;;;;;39.85;19.63;;;14.50;99.90;;;;;;5093131;28;20044;-73
2022/06/08 05:10:43;;;;;;;34.53;17.48;;;14.60;99.90;;;;;;5093182;28;20042;-73
2022/06/08 05:13:11;;;;;;;34.90;17.23;;;14.60;99.90;;;;;;5092011;28;20329;-73
2022/06/08 05:15:39;;;;;;;35.38;16.90;;;14.70;99.90;;;;;;5092994;28;20135;-73
2022/06/08 05:18:05;;;;;;;37.17;18.20;;;14.70;99.90;;;;;;5091680;28;20452;-73
2022/06/08 05:20:32;;;;;;;39.58;18.58;;;14.80;99.90;;;;;;5092937;28;20094;-73
2022/06/08 05:22:58;;;;;;;33.40;17.20;;;14.90;99.90;;;;;;5091322;28;20047;-73
2022/06/08 05:25:32;;;;;;;32.53;16.55;;;15.00;99.90;;;;;;5090875;28;20098;-73
2022/06/08 05:27:59;;;;;;;34.17;16.63;;;15.00;99.90;;;;;;5093067;28;20076;-73
2022/06/08 05:30:25;;;;;;;32.63;16.27;;;15.20;99.90;;;;;;5092698;28;20048;-73
2022/06/08 05:32:52;;;;;;;34.05;17.38;;;15.20;99.90;;;;;;5094979;28;20126;-74
2022/06/08 05:35:18;;;;;;;28.98;15.68;;;15.30;99.90;;;;;;5098085;28;20489;-74
2022/06/08 05:37:43;;;;;;;34.50;16.90;;;15.40;99.90;;;;;;5097626;28;20286;-73
2022/06/08 05:40:10;;;;;;;31.65;16.88;;;15.50;99.90;;;;;;5095971;28;20454;-73
2022/06/08 05:42:37;;;;;;;35.67;16.98;;;15.60;99.90;;;;;;5097313;28;20044;-73
2022/06/08 05:45:08;;;;;;;31.00;16.27;;;15.70;99.90;;;;;;5097211;28;20080;-72
2022/06/08 05:47:34;;;;;;;31.73;15.70;;;15.80;99.90;;;;;;5096475;28;20056;-73
2022/06/08 05:49:59;;;;;;;30.67;15.88;;;15.80;99.90;;;;;;5098765;28;20039;-72
2022/06/08 05:52:26;;;;;;;27.58;15.18;;;15.80;99.90;;;;;;5098321;28;20044;-74
2022/06/08 05:54:52;;;;;;;34.13;15.93;;;15.90;99.90;;;;;;5099751;28;20044;-74
2022/06/08 05:57:18;;;;;;;33.72;16.90;;;15.90;99.90;;;;;;5098940;28;20066;-73
2022/06/08 05:59:44;;;;;;;30.08;16.65;;;15.90;99.90;;;;;;5099155;28;20051;-72
2022/06/08 06:02:15;;;;;;;31.17;16.55;;;16.00;99.90;;;;;;5099087;28;20052;-73
2022/06/08 06:04:42;;;;;;;33.90;16.77;;;15.90;99.90;;;;;;5098992;28;20086;-74
2022/06/08 06:07:08;;;;;;;;;;;16.00;99.90;;;;;;5096121;28;20051;-74
2022/06/08 06:09:33;;;;;;;30.27;16.23;;;16.00;99.90;;;;;;5112045;28;19920;-74
2022/06/08 06:11:59;;;;;;;30.88;17.23;;;16.20;99.90;;;;;;5095027;28;20130;-73
2022/06/08 06:14:25;;;;;;;30.45;15.40;;;16.30;99.90;;;;;;5111783;28;20094;-74
2022/06/08 06:16:51;;;;;;;32.13;16.35;;;16.20;99.90;;;;;;5096594;28;20499;-75
2022/06/08 06:19:17;;;;;;;31.65;15.52;;;16.30;99.90;;;;;;5095269;28;20044;-74
2022/06/08 06:21:43;;;;;;;32.92;16.20;;;16.30;99.90;;;;;;5096207;28;20040;-73
2022/06/08 06:24:09;;;;;;;31.60;15.88;;;16.40;99.90;;;;;;5111083;28;20496;-73
2022/06/08 06:26:35;;;;;;;28.55;14.23;;;16.40;99.90;;;;;;5095295;28;20077;-74
2022/06/08 06:29:00;;;;;;;24.98;13.18;;;16.60;99.90;;;;;;5096155;28;20040;-75
2022/06/08 06:31:32;;;;;;;25.00;12.60;;;16.50;99.90;;;;;;5078144;28;20040;-74
2022/06/08 06:33:58;;;;;;;22.15;11.68;;;16.60;99.90;;;;;;5096232;28;20522;-75
2022/06/08 06:36:24;;;;;;;22.23;12.43;;;16.80;99.90;;;;;;5094964;28;20048;-74
2022/06/08 06:38:50;;;;;;;23.95;11.93;;;16.90;99.90;;;;;;5094711;28;20421;-76
2022/06/08 06:41:17;;;;;;;19.77;10.90;;;17.00;99.90;;;;;;5112344;28;20081;-75
2022/06/08 06:43:43;;;;;;;20.48;11.18;;;17.10;99.90;;;;;;5110819;28;20047;-74
2022/06/08 06:46:10;;;;;;;20.15;10.63;;;17.10;99.90;;;;;;5096384;28;20087;-75
2022/06/08 06:48:36;;;;;;;22.65;11.55;;;17.30;99.90;;;;;;5079004;28;20040;-75
2022/06/08 06:51:03;;;;;;;20.50;10.10;;;17.30;99.90;;;;;;5096744;28;20125;-75
2022/06/08 06:53:29;;;;;;;20.05;9.98;;;17.60;99.90;;;;;;5096328;28;20123;-73
2022/06/08 06:55:56;;;;;;;20.27;10.00;;;;;;;;;;5096822;28;20055;-76
2022/06/08 06:58:22;;;;;;;18.63;9.10;;;18.00;99.90;;;;;;5097008;28;20498;-75
2022/06/08 07:00:53;;;;;;;17.98;9.13;;;18.00;99.90;;;;;;5096140;28;20136;-75
2022/06/08 07:03:20;;;;;;;17.90;9.80;;;18.00;99.90;;;;;;5094883;28;20127;-75
2022/06/08 07:05:46;;;;;;;21.02;10.25;;;18.10;99.90;;;;;;5095172;28;20047;-75
2022/06/08 07:08:12;;;;;;;19.88;9.70;;;18.40;99.90;;;;;;5078425;28;20090;-75
2022/06/08 07:10:38;;;;;;;15.90;8.73;;;18.40;99.90;;;;;;5096352;28;20048;-74
2022/06/08 07:13:05;;;;;;;16.97;9.13;;;18.60;99.90;;;;;;5077854;28;20079;-74
2022/06/08 07:15:30;;;;;;;16.80;8.50;;;18.50;99.90;;;;;;5096967;28;20051;-76
2022/06/08 07:17:56;;;;;;;17.00;8.30;;;18.70;99.90;;;;;;5095176;28;20127;-75
2022/06/08 07:20:23;;;;;;;12.33;6.50;;;19.10;99.90;;;;;;5095264;28;20264;-75
2022/06/08 07:22:50;;;;;;;;;;;19.10;99.90;;;;;;5096363;28;20036;-74
2022/06/08 07:25:17;;;;;;;14.15;6.88;;;19.20;99.90;;;;;;5095184;28;19930;-75
2022/06/08 07:27:44;;;;;;;15.52;7.45;;;;;;;;;;5094550;28;20052;-75
2022/06/08 07:30:11;;;;;;;17.33;8.23;;;19.30;99.90;;;;;;5095678;28;20048;-73
2022/06/08 07:32:36;;;;;;;15.50;7.32;;;19.30;99.90;;;;;;5094395;28;20044;-74
2022/06/08 07:35:05;;;;;;;16.50;6.77;;;19.40;99.90;;;;;;5094256;28;20044;-73
2022/06/08 07:37:31;;;;;;;19.25;7.05;;;19.50;99.90;;;;;;5096483;28;20044;-74
2022/06/08 07:39:57;;;;;;;13.07;6.93;;;19.50;99.90;;;;;;5095789;28;20123;-74
2022/06/08 07:42:23;;;;;;;13.20;6.60;;;19.60;99.90;;;;;;5094519;28;20347;-73
2022/06/08 07:44:48;;;;;;;12.63;5.47;;;19.70;99.90;;;;;;5096120;28;20132;-73
2022/06/08 07:47:15;;;;;;;14.37;6.50;;;19.60;99.90;;;;;;5094182;28;20453;-73
2022/06/08 07:49:45;;;;;;;12.35;5.82;;;19.70;99.90;;;;;;5095928;28;20059;-74
2022/06/08 07:52:12;;;;;;;16.50;6.78;;;19.60;99.90;;;;;;5093730;28;20051;-74
2022/06/08 07:54:40;;;;;;;12.65;6.25;;;19.70;99.90;;;;;;5094787;28;20036;-74
2022/06/08 07:57:07;;;;;;;15.18;7.40;;;19.90;99.90;;;;;;5093840;28;20043;-73
2022/06/08 07:59:36;;;;;;;14.82;7.32;;;20.00;99.90;;;;;;5092981;28;20044;-74
2022/06/08 08:02:03;;;;;;;14.50;7.20;;;20.00;99.90;;;;;;5094661;28;20048;-73
2022/06/08 08:04:29;;;;;;;15.43;7.72;;;20.10;99.90;;;;;;5094578;28;20044;-73
2022/06/08 08:06:55;;;;;;;13.40;7.20;;;20.10;99.90;;;;;;5093209;28;20456;-74
2022/06/08 08:09:22;;;;;;;10.65;6.25;;;20.30;99.90;;;;;;5094540;28;20121;-73
2022/06/08 08:11:52;;;;;;;14.45;7.15;;;20.30;99.90;;;;;;5094088;28;20070;-73
2022/06/08 08:14:20;;;;;;;13.52;7.40;;;20.20;99.90;;;;;;5093814;28;20051;-73
2022/06/08 08:16:47;;;;;;;13.75;6.90;;;20.30;99.90;;;;;;5076339;28;20048;-72
2022/06/08 08:19:17;;;;;;;16.60;7.82;;;20.40;99.90;;;;;;5076378;28;20123;-74
2022/06/08 08:21:44;;;;;;;13.25;6.70;;;20.40;99.90;;;;;;5110192;28;20066;-73
2022/06/08 08:24:10;;;;;;;12.38;6.88;;;20.70;99.90;;;;;;5094205;28;20048;-75
2022/06/08 08:26:36;;;;;;;14.35;7.22;;;20.80;99.90;;;;;;5094349;28;20438;-75
2022/06/08 08:29:03;;;;;;;12.83;6.57;;;20.80;99.90;;;;;;5094706;28;20051;-75
2022/06/08 08:31:29;;;;;;;13.25;5.57;;;20.80;99.90;;;;;;5095228;28;20044;-75
2022/06/08 08:33:55;;;;;;;11.45;5.00;;;20.50;99.90;;;;;;5094629;28;20079;-75
2022/06/08 08:36:21;;;;;;;10.37;5.23;;;20.60;99.90;;;;;;5093936;28;20347;-73
2022/06/08 08:38:47;;;;;;;11.33;5.30;;;20.50;99.90;;;;;;5093930;28;20044;-74
2022/06/08 08:44:07;;;;;;;13.73;6.18;;;20.60;99.90;;;;;;5093020;28;20044;-76
2022/06/08 08:46:43;;;;;;;;;;;20.90;99.90;;;;;;5093134;28;20040;-74
2022/06/08 08:49:19;;;;;;;12.88;5.93;;;21.30;99.90;;;;;;5093823;28;19927;-74
2022/06/08 08:51:52;;;;;;;10.73;5.25;;;21.50;99.90;;;;;;5094062;28;20501;-76
2022/06/08 08:54:28;;;;;;;10.80;4.53;;;21.60;99.90;;;;;;5075764;28;20039;-75
2022/06/08 08:56:59;;;;;;;;;;;21.50;99.90;;;;;;5095460;28;20063;-75
2022/06/08 08:59:30;;;;;;;8.43;3.28;;;21.50;99.90;;;;;;5093540;28;20376;-74
2022/06/08 09:01:57;;;;;;;12.23;5.45;;;21.20;99.90;;;;;;5076764;28;20048;-75
2022/06/08 09:04:33;;;;;;;10.32;5.75;;;21.20;99.90;;;;;;5094287;28;20349;-75
2022/06/08 09:07:18;;;;;;;8.95;4.30;;;21.30;99.90;;;;;;5092266;28;20055;-74
2022/06/08 09:09:45;;;;;;;8.65;4.00;;;21.40;99.90;;;;;;5092285;28;20047;-73
2022/06/08 09:12:15;;;;;;;4.97;2.55;;;21.10;99.90;;;;;;5076719;28;20044;-77
2022/06/08 09:15:00;;;;;;;6.75;3.17;;;21.40;99.90;;;;;;5093623;28;20123;-74
2022/06/08 09:17:35;;;;;;;7.40;2.42;;;21.70;99.90;;;;;;5092362;28;20079;-74
2022/06/08 09:20:22;;;;;;;6.03;2.38;;;21.80;99.90;;;;;;5097462;28;20483;-73
2022/06/08 09:22:52;;;;;;;24.55;6.45;;;21.90;99.90;;;;;;5084036;28;20036;-74
2022/06/08 09:25:38;;;;;;;9.48;3.83;;;22.00;99.90;;;;;;5096887;28;20056;-74
2022/06/08 09:28:26;;;;;;;7.70;3.88;;;22.00;99.90;;;;;;5097390;28;20510;-75
2022/06/08 09:30:53;;;;;;;19.10;7.55;;;22.10;99.90;;;;;;5093082;28;20491;-75
2022/06/08 09:33:35;;;;;;;;;;;22.30;99.90;;;;;;5092994;28;20044;-75
2022/06/08 09:36:06;;;;;;;16.33;5.43;;;22.40;99.90;;;;;;5092910;28;19942;-76
2022/06/08 09:38:37;;;;;;;26.75;9.38;;;22.40;99.90;;;;;;5092697;28;20044;-77
2022/06/08 09:41:22;;;;;;;8.73;2.65;;;22.50;99.90;;;;;;5093538;28;20093;-75
2022/06/08 09:44:19;;;;;;;8.20;3.10;;;22.40;99.90;;;;;;5093991;28;20044;-75
2022/06/08 09:53:39;;;;;;;8.97;3.33;;;22.40;99.90;;;;;;5092481;28;20256;-75
2022/06/08 09:56:33;;;;;;;8.05;3.10;;;22.70;99.90;;;;;;5075688;28;20533;-74
2022/06/08 09:59:19;;;;;;;7.75;3.15;;;22.70;99.90;;;;;;5093993;28;20478;-75
2022/06/08 10:02:12;;;;;;;7.13;3.10;;;22.60;99.90;;;;;;5092797;28;20044;-74
2022/06/08 10:04:56;;;;;;;11.95;4.00;;;22.70;99.90;;;;;;5093699;28;20067;-76
2022/06/08 10:07:50;;;;;;;10.73;4.20;;;22.80;99.90;;;;;;5093594;28;20055;-74
2022/06/08 10:10:25;;;;;;;12.07;4.35;;;22.90;99.90;;;;;;5095894;28;20474;-77
2022/06/08 10:13:00;;;;;;;11.10;5.00;;;22.90;99.90;;;;;;5097527;28;20044;-74
2022/06/08 10:15:35;;;;;;;11.15;5.20;;;23.00;99.90;;;;;;5097986;28;20086;-74
2022/06/08 10:18:22;;;;;;;10.00;4.28;;;23.00;99.90;;;;;;5095046;28;20044;-73
2022/06/08 10:20:55;;;;;;;9.63;3.85;;;23.00;99.90;;;;;;5080755;28;20523;-75
2022/06/08 10:23:33;;;;;;;10.68;4.43;;;23.10;99.90;;;;;;5097016;28;20040;-73
2022/06/08 10:26:16;;;;;;;10.80;4.50;;;23.10;99.90;;;;;;5097741;28;20417;-73
2022/06/08 10:28:48;;;;;;;11.40;4.47;;;23.20;99.90;;;;;;5098884;28;20130;-74
2022/06/08 10:31:36;;;;;;;11.60;4.57;;;23.10;99.90;;;;;;5098503;28;20106;-76
2022/06/08 10:34:24;;;;;;;12.52;4.45;;;23.20;99.90;;;;;;5096130;28;20044;-74
2022/06/08 10:36:53;;;;;;;11.90;4.53;;;23.20;99.90;;;;;;5096146;28;20063;-74
2022/06/08 10:39:19;;;;;;;10.95;4.38;;;23.40;99.90;;;;;;5096640;28;20381;-74
2022/06/08 10:44:53;;;;;;;10.55;5.05;;;23.40;99.90;;;;;;5072715;28;20438;-73
2022/06/08 10:47:27;;;;;;;10.45;4.38;;;23.40;99.90;;;;;;5095471;28;20052;-74
2022/06/08 10:50:15;;;;;;;10.32;4.50;;;23.20;99.90;;;;;;5097394;28;20139;-74
2022/06/08 10:52:47;;;;;;;9.63;4.20;;;23.20;99.90;;;;;;5097362;28;20137;-73
2022/06/08 10:55:18;;;;;;;9.10;4.45;;;23.10;99.90;;;;;;5095950;28;20452;-73
2022/06/08 10:57:50;;;;;;;10.88;5.10;;;23.10;99.90;;;;;;5078632;28;20138;-72
2022/06/08 11:00:19;;;;;;;10.75;4.25;;;23.20;99.90;;;;;;5095360;28;20048;-75
2022/06/08 11:02:53;;;;;;;11.57;4.90;;;23.20;99.90;;;;;;5097153;28;20047;-73
2022/06/08 11:05:31;;;;;;;7.70;3.97;;;23.20;99.90;;;;;;5094927;28;20052;-74
2022/06/08 11:08:04;;;;;;;13.77;4.13;;;23.20;99.90;;;;;;5094867;28;20456;-74
2022/06/08 11:10:49;;;;;;;11.75;3.58;;;22.90;99.90;;;;;;5095635;28;20052;-74
2022/06/08 11:13:22;;;;;;;11.82;3.33;;;22.50;99.90;;;;;;5094581;28;20058;-75
2022/06/08 11:15:53;;;;;;;9.48;3.63;;;22.20;99.90;;;;;;5096564;28;20376;-73
2022/06/08 11:18:37;;;;;;;10.80;3.65;;;22.00;99.90;;;;;;5094372;28;20044;-74
2022/06/08 11:22:05;;;;;;;9.65;3.60;;;21.80;99.90;;;;;;5094813;28;20044;-74
2022/06/08 11:24:48;;;;;;;6.63;3.58;;;21.70;99.90;;;;;;4996303;28;20214;-72
2022/06/08 11:27:29;;;;;;;9.32;3.97;;;21.60;99.90;;;;;;5013287;28;20049;-75
2022/06/08 11:30:23;;;;;;;9.73;3.90;;;21.80;99.90;;;;;;5068650;28;20147;-75
2022/06/08 11:32:52;;;;;;;8.48;3.65;;;22.00;99.90;;;;;;5096297;28;20123;-75
2022/06/08 11:35:51;;;;;;;11.07;3.75;;;22.10;99.90;;;;;;5099398;28;20054;-75
2022/06/08 11:38:48;;;;;;;10.00;3.10;;;22.20;99.90;;;;;;5095285;28;20181;-75
2022/06/08 11:41:32;;;;;;;7.50;1.90;;;22.00;99.90;;;;;;5096023;28;20055;-73
2022/06/08 11:44:19;;;;;;;5.55;0.70;;;21.80;99.90;;;;;;5097373;28;20070;-73
2022/06/08 11:47:04;;;;;;;5.40;0.77;;;21.50;99.90;;;;;;5097023;28;20052;-74
2022/06/08 11:49:44;;;;;;;7.68;1.35;;;20.80;99.90;;;;;;5096913;28;20066;-75
2022/06/08 11:52:30;;;;;;;5.95;0.90;;;20.50;99.90;;;;;;5097278;28;20048;-75
2022/06/08 11:55:16;;;;;;;9.70;1.20;;;20.20;99.90;;;;;;5078318;28;20113;-74
2022/06/08 11:58:05;;;;;;;8.68;0.93;;;19.80;99.90;;;;;;5096715;28;20054;-74
2022/06/08 12:00:53;;;;;;;5.25;1.10;;;19.60;99.90;;;;;;5082270;28;20381;-75
2022/06/08 12:03:44;;;;;;;10.82;1.77;;;18.90;99.90;;;;;;5096285;28;20087;-72
2022/06/08 12:06:13;;;;;;;6.45;1.42;;;18.50;99.90;;;;;;5095412;28;20047;-73
2022/06/08 12:08:42;;;;;;;10.50;1.75;;;18.40;99.90;;;;;;5095094;28;20517;-71
2022/06/08 12:11:13;;;;;;;11.68;1.90;;;18.40;99.90;;;;;;5095317;28;20127;-73
2022/06/08 12:13:50;;;;;;;9.77;1.55;;;18.30;99.90;;;;;;5094355;28;20093;-70
2022/06/08 12:16:22;;;;;;;;;;;18.20;99.90;;;;;;5095191;28;20048;-73
2022/06/08 12:19:05;;;;;;;8.88;1.30;;;18.10;99.90;;;;;;5093062;28;19920;-73
2022/06/08 12:21:36;;;;;;;7.78;1.40;;;18.20;99.90;;;;;;5094464;28;20043;-72
2022/06/08 12:24:11;;;;;;;9.85;1.50;;;18.10;99.90;;;;;;5075989;28;20195;-72
2022/06/08 12:26:52;;;;;;;7.45;1.70;;;18.10;99.90;;;;;;5094929;28;20055;-71
2022/06/08 12:29:29;;;;;;;9.18;1.90;;;18.10;99.90;;;;;;5093581;28;20135;-71
2022/06/08 12:32:06;;;;;;;7.57;1.75;;;18.20;99.90;;;;;;5093633;28;20097;-72
2022/06/08 12:34:38;;;;;;;11.10;2.58;;;18.20;99.90;;;;;;5093358;28;20357;-72
2022/06/08 12:37:27;;;;;;;9.25;2.67;;;17.90;99.90;;;;;;5093228;28;20052;-72
2022/06/08 12:39:55;;;;;;;7.20;2.33;;;17.90;99.90;;;;;;5093059;28;20086;-71
2022/06/08 12:42:30;;;;;;;10.10;2.78;;;17.90;99.90;;;;;;5075513;28;20044;-70
2022/06/08 12:44:58;;;;;;;8.63;2.97;;;17.80;99.90;;;;;;5075805;28;20058;-71
2022/06/08 12:47:31;;;;;;;7.95;2.90;;;17.80;99.90;;;;;;5093886;28;20051;-71
2022/06/08 12:50:29;;;;;;;7.93;3.25;;;17.90;99.90;;;;;;5094097;28;20090;-70
2022/06/08 12:52:56;;;;;;;9.80;3.58;;;18.00;99.90;;;;;;5082825;28;20105;-70
2022/06/08 12:55:26;;;;;;;8.55;3.25;;;18.00;99.90;;;;;;5092449;28;20068;-72
2022/06/08 12:57:52;;;;;;;13.82;4.00;;;18.10;99.90;;;;;;5075726;28;20048;-71
2022/06/08 13:00:25;;;;;;;11.38;3.75;;;18.20;99.90;;;;;;5092599;28;20043;-71
2022/06/08 13:02:51;;;;;;;9.75;3.92;;;18.50;99.90;;;;;;5094566;28;20055;-72
2022/06/08 13:05:27;;;;;;;11.87;4.40;;;18.70;99.90;;;;;;5094376;28;20044;-71
2022/06/08 13:07:56;;;;;;;11.05;4.72;;;18.90;99.90;;;;;;5077178;28;20044;-71
2022/06/08 13:10:29;;;;;;;8.93;4.57;;;19.20;99.90;;;;;;5095302;28;20052;-71
2022/06/08 13:13:03;;;;;;;10.35;4.88;;;19.40;99.90;;;;;;5097085;28;20059;-72
2022/06/08 13:15:39;;;;;;;12.57;4.90;;;19.90;99.90;;;;;;5077873;28;20048;-74
2022/06/08 13:18:06;;;;;;;13.10;4.50;;;20.40;99.90;;;;;;5093452;28;20036;-72